Time;durP1;ratioP1;P1;durP2;ratioP2;P2;SDS_P1;SDS_P2;PMS_P1;PMS_P2;Temp;Humidity;BMP_temperature;BMP_pressure;BME280_temperature;BME280_humidity;BME280_pressure;Samples;Min_cycle;Max_cycle;Signal;HPM_P1;HPM_P2
2023/01/06 00:01:01;;;;;;;12.07;4.33;;;;;;;;;;4959241;28;20186;-82
2023/01/06 00:03:26;;;;;;;9.00;4.70;;;;;;;;;;4958831;28;20254;-82
2023/01/06 00:05:56;;;;;;;7.93;4.40;;;;;;;;;;4943209;28;20228;-81
2023/01/06 00:08:22;;;;;;;7.67;4.33;;;;;;;;;;4975902;28;20228;-86
2023/01/06 00:10:48;;;;;;;14.03;4.77;;;;;;;;;;4958851;28;20195;-86
2023/01/06 00:13:14;;;;;;;11.43;4.07;;;;;;;;;;4943243;28;20228;-81
2023/01/06 00:15:40;;;;;;;11.70;4.40;;;;;;;;;;4960506;28;20175;-81
2023/01/06 00:18:06;;;;;;;9.50;4.60;;;;;;;;;;4961780;28;20185;-81
2023/01/06 00:20:33;;;;;;;9.13;4.60;;;;;;;;;;4977745;28;20188;-81
2023/01/06 00:22:59;;;;;;;14.20;5.20;;;;;;;;;;4978082;28;20181;-86
2023/01/06 00:25:25;;;;;;;11.07;5.13;;;;;;;;;;4962268;28;20276;-85
2023/01/06 00:27:51;;;;;;;11.67;5.20;;;;;;;;;;4978425;28;20213;-86
2023/01/06 00:30:17;;;;;;;7.23;4.50;;;;;;;;;;4968372;28;20194;-86
2023/01/06 00:32:43;;;;;;;8.00;4.53;;;;;;;;;;4955150;28;20257;-86
2023/01/06 00:35:09;;;;;;;8.20;4.80;;;;;;;;;;4961762;28;20190;-86
2023/01/06 00:37:35;;;;;;;8.50;4.80;;;;;;;;;;4961079;28;20187;-86
2023/01/06 00:40:01;;;;;;;11.00;4.73;;;;;;;;;;4946149;28;20182;-86
2023/01/06 00:42:27;;;;;;;13.33;5.27;;;;;;;;;;4978139;28;20182;-86
2023/01/06 00:44:53;;;;;;;10.43;4.87;;;;;;;;;;4961273;28;20336;-86
2023/01/06 00:47:19;;;;;;;10.20;4.63;;;;;;;;;;4973691;28;20214;-89
2023/01/06 00:49:46;;;;;;;8.07;4.50;;;;;;;;;;4957936;28;20190;-89
2023/01/06 00:52:12;;;;;;;8.47;4.40;;;;;;;;;;4958879;28;20194;-89
2023/01/06 00:54:38;;;;;;;8.17;4.83;;;;;;;;;;4983200;28;20233;-90
2023/01/06 00:57:05;;;;;;;9.77;4.40;;;;;;;;;;4962358;28;20195;-89
2023/01/06 00:59:31;;;;;;;9.53;4.50;;;;;;;;;;4962227;28;20214;-89
2023/01/06 01:01:58;;;;;;;9.13;4.30;;;;;;;;;;4961921;28;20178;-89
2023/01/06 01:04:25;;;;;;;7.20;4.53;;;;;;;;;;4990231;28;20202;-89
2023/01/06 01:06:53;;;;;;;8.13;4.40;;;;;;;;;;4981860;28;20185;-90
2023/01/06 01:09:21;;;;;;;5.97;3.93;;;;;;;;;;4999115;28;20182;-90
2023/01/06 01:14:32;;;;;;;8.97;4.63;;;;;;;;;;4998485;28;20248;-90
2023/01/06 01:16:58;;;;;;;9.07;4.33;;;;;;;;;;4981160;28;20186;-90
2023/01/06 01:19:25;;;;;;;6.20;4.23;;;;;;;;;;4965707;28;20192;-88
2023/01/06 01:21:51;;;;;;;6.53;4.37;;;;;;;;;;4981400;28;20231;-89
2023/01/06 01:24:17;;;;;;;7.77;4.50;;;;;;;;;;4965727;28;20297;-90
2023/01/06 01:26:43;;;;;;;8.50;4.60;;;;;;;;;;4997470;28;20209;-86
2023/01/06 01:29:14;;;;;;;9.80;4.13;;;;;;;;;;4964761;28;20206;-85
2023/01/06 01:31:40;;;;;;;6.93;4.47;;;;;;;;;;4980450;28;20229;-80
2023/01/06 01:34:07;;;;;;;9.57;4.57;;;;;;;;;;4981093;28;20210;-89
2023/01/06 01:36:33;;;;;;;7.53;4.57;;;;;;;;;;4965007;28;20212;-90
2023/01/06 01:38:59;;;;;;;7.00;4.47;;;;;;;;;;4997892;28;20210;-90
2023/01/06 01:41:26;;;;;;;7.00;4.40;;;;;;;;;;4996895;28;20182;-90
2023/01/06 01:43:54;;;;;;;10.23;4.37;;;;;;;;;;4980632;28;20182;-89
2023/01/06 01:46:40;;;;;;;6.47;4.00;;;;;;;;;;4980641;28;20178;-86
2023/01/06 01:49:10;;;;;;;8.73;4.40;;;;;;;;;;4996380;28;20276;-86
2023/01/06 01:51:39;;;;;;;9.90;4.17;;;;;;;;;;4980013;28;20267;-86
2023/01/06 01:54:07;;;;;;;9.80;4.87;;;;;;;;;;4980322;28;20210;-86
2023/01/06 01:56:34;;;;;;;7.60;4.23;;;;;;;;;;4966243;28;20194;-86
2023/01/06 01:59:03;;;;;;;6.83;3.80;;;;;;;;;;4977845;28;20175;-86
2023/01/06 02:01:29;;;;;;;7.70;3.77;;;;;;;;;;4968983;28;20185;-86
2023/01/06 02:03:55;;;;;;;5.53;3.77;;;;;;;;;;4958901;28;20194;-89
2023/01/06 02:06:23;;;;;;;5.33;3.63;;;;;;;;;;4963818;28;20186;-90
2023/01/06 02:09:08;;;;;;;5.47;3.43;;;;;;;;;;4966509;28;20190;-82
2023/01/06 02:11:35;;;;;;;7.40;3.80;;;;;;;;;;4971042;28;20191;-82
2023/01/06 02:14:12;;;;;;;6.93;3.40;;;;;;;;;;4970906;28;20202;-82
2023/01/06 02:16:47;;;;;;;6.67;3.13;;;;;;;;;;4960749;28;20183;-90
2023/01/06 02:19:17;;;;;;;4.93;2.87;;;;;;;;;;4960768;28;20174;-85
2023/01/06 02:21:46;;;;;;;4.43;2.97;;;;;;;;;;4960095;28;20274;-81
2023/01/06 02:24:12;;;;;;;5.93;3.17;;;;;;;;;;4960488;28;20205;-81
2023/01/06 02:27:02;;;;;;;5.23;2.80;;;;;;;;;;4960095;28;20186;-81
2023/01/06 02:29:31;;;;;;;6.10;3.20;;;;;;;;;;4960716;28;20182;-81
2023/01/06 02:32:02;;;;;;;4.70;2.50;;;;;;;;;;4976340;28;20316;-82
2023/01/06 02:34:38;;;;;;;4.53;2.73;;;;;;;;;;4979178;28;20218;-82
2023/01/06 02:37:04;;;;;;;6.27;2.80;;;;;;;;;;4979385;28;20181;-81
2023/01/06 02:39:30;;;;;;;6.47;2.57;;;;;;;;;;4996570;28;20261;-81
2023/01/06 02:42:02;;;;;;;5.67;2.60;;;;;;;;;;4979093;28;20241;-81
2023/01/06 02:44:37;;;;;;;3.60;2.67;;;;;;;;;;4979169;28;20216;-81
2023/01/06 02:47:13;;;;;;;5.73;2.80;;;;;;;;;;4969840;28;20198;-82
2023/01/06 02:49:39;;;;;;;4.00;2.83;;;;;;;;;;4959773;28;20185;-82
2023/01/06 02:52:21;;;;;;;5.30;2.80;;;;;;;;;;4960007;28;20186;-82
2023/01/06 02:55:07;;;;;;;6.20;3.00;;;;;;;;;;4975813;28;20210;-82
2023/01/06 02:57:36;;;;;;;5.93;3.00;;;;;;;;;;4959264;28;20191;-82
2023/01/06 03:00:05;;;;;;;8.07;3.53;;;;;;;;;;4959759;28;20234;-82
2023/01/06 03:02:32;;;;;;;5.97;2.80;;;;;;;;;;4959748;28;20225;-82
2023/01/06 03:04:59;;;;;;;4.70;3.30;;;;;;;;;;4977543;28;20210;-82
2023/01/06 03:07:27;;;;;;;7.07;3.00;;;;;;;;;;4975740;28;20185;-82
2023/01/06 03:09:54;;;;;;;9.43;3.50;;;;;;;;;;4959179;28;20217;-90
2023/01/06 03:12:27;;;;;;;7.20;3.30;;;;;;;;;;4962202;28;20215;-91
2023/01/06 03:14:55;;;;;;;7.00;3.33;;;;;;;;;;4977925;28;20280;-89
2023/01/06 03:17:21;;;;;;;6.90;3.27;;;;;;;;;;4989146;28;20179;-90
2023/01/06 03:19:47;;;;;;;4.70;2.87;;;;;;;;;;4956800;28;20281;-90
2023/01/06 03:22:14;;;;;;;6.87;2.80;;;;;;;;;;4960362;28;20329;-82
2023/01/06 03:24:40;;;;;;;6.70;2.80;;;;;;;;;;4960485;28;20191;-82
2023/01/06 03:27:06;;;;;;;10.50;2.90;;;;;;;;;;4971858;28;20193;-85
2023/01/06 03:29:32;;;;;;;5.70;2.63;;;;;;;;;;4967369;28;20194;-85
2023/01/06 03:32:12;;;;;;;4.23;2.40;;;;;;;;;;4984878;28;20254;-85
2023/01/06 03:34:41;;;;;;;7.80;2.40;;;;;;;;;;4968457;28;20241;-85
2023/01/06 03:37:16;;;;;;;3.70;2.20;;;;;;;;;;4967914;28;20187;-85
2023/01/06 03:39:50;;;;;;;4.63;2.20;;;;;;;;;;4964612;28;20208;-85
2023/01/06 03:45:38;;;;;;;5.33;2.07;;;;;;;;;;4926631;29;20207;-89
2023/01/06 03:48:04;;;;;;;7.87;2.27;;;;;;;;;;4970177;28;20194;-80
2023/01/06 03:50:40;;;;;;;5.07;2.17;;;;;;;;;;4981363;28;20197;-81
2023/01/06 03:53:06;;;;;;;3.70;2.00;;;;;;;;;;4983629;28;20276;-81
2023/01/06 03:55:33;;;;;;;4.77;2.43;;;;;;;;;;4983608;28;20241;-80
2023/01/06 03:58:00;;;;;;;2.73;1.90;;;;;;;;;;4966345;28;20186;-80
2023/01/06 04:00:28;;;;;;;3.13;2.00;;;;;;;;;;4968721;28;20189;-80
2023/01/06 04:02:54;;;;;;;4.30;2.27;;;;;;;;;;4982922;28;20260;-80
2023/01/06 04:05:22;;;;;;;6.37;2.03;;;;;;;;;;4950417;28;20197;-85
2023/01/06 04:07:48;;;;;;;4.73;2.03;;;;;;;;;;4983564;28;20186;-80
2023/01/06 04:10:15;;;;;;;3.90;1.80;;;;;;;;;;4967488;28;20177;-81
2023/01/06 04:12:41;;;;;;;3.47;1.93;;;;;;;;;;4963425;28;20214;-85
2023/01/06 04:15:10;;;;;;;5.30;1.70;;;;;;;;;;4955992;28;20213;-85
2023/01/06 04:17:36;;;;;;;4.50;1.80;;;;;;;;;;4986205;28;20186;-85
2023/01/06 04:20:02;;;;;;;4.97;1.83;;;;;;;;;;4958414;28;20255;-85
2023/01/06 04:22:28;;;;;;;5.27;1.70;;;;;;;;;;4972107;28;20181;-84
2023/01/06 04:24:54;;;;;;;5.37;1.80;;;;;;;;;;4969975;28;20316;-85
2023/01/06 04:27:21;;;;;;;4.53;1.97;;;;;;;;;;4960223;28;20178;-85
2023/01/06 04:29:47;;;;;;;3.17;1.70;;;;;;;;;;4962056;28;20290;-85
2023/01/06 04:32:13;;;;;;;3.87;1.87;;;;;;;;;;4993597;28;20277;-85
2023/01/06 04:34:39;;;;;;;5.27;1.80;;;;;;;;;;4961725;28;20360;-85
2023/01/06 04:37:05;;;;;;;4.50;2.00;;;;;;;;;;4961696;28;20318;-85
2023/01/06 04:39:31;;;;;;;4.13;1.50;;;;;;;;;;4993674;28;20213;-85
2023/01/06 04:41:57;;;;;;;3.47;1.53;;;;;;;;;;4977714;28;20239;-81
2023/01/06 04:44:23;;;;;;;4.87;1.70;;;;;;;;;;4961666;28;20214;-82
2023/01/06 04:46:49;;;;;;;3.60;1.60;;;;;;;;;;4962014;28;20297;-90
2023/01/06 04:49:15;;;;;;;2.50;1.60;;;;;;;;;;4961832;28;20354;-82
2023/01/06 04:51:41;;;;;;;5.83;1.67;;;;;;;;;;4978119;28;20205;-81
2023/01/06 04:54:07;;;;;;;3.30;1.70;;;;;;;;;;4961978;28;20213;-81
2023/01/06 04:56:33;;;;;;;4.37;1.83;;;;;;;;;;4977357;28;20189;-80
2023/01/06 04:58:59;;;;;;;4.10;1.80;;;;;;;;;;4961782;28;20205;-80
2023/01/06 05:01:25;;;;;;;3.47;1.50;;;;;;;;;;4961628;28;20189;-82
2023/01/06 05:03:51;;;;;;;5.73;1.63;;;;;;;;;;4977349;28;20189;-82
2023/01/06 05:06:18;;;;;;;3.63;1.70;;;;;;;;;;4977804;28;20186;-89
2023/01/06 05:08:45;;;;;;;5.80;1.97;;;;;;;;;;4977295;28;20188;-89
2023/01/06 05:11:12;;;;;;;3.30;1.70;;;;;;;;;;4961078;28;20186;-89
2023/01/06 05:13:38;;;;;;;4.87;1.90;;;;;;;;;;4993248;28;20269;-90
2023/01/06 05:16:08;;;;;;;3.87;1.60;;;;;;;;;;4960965;28;20236;-85
2023/01/06 05:18:34;;;;;;;3.67;1.83;;;;;;;;;;4961230;28;20241;-85
2023/01/06 05:21:01;;;;;;;3.00;1.90;;;;;;;;;;4958879;28;20194;-85
2023/01/06 05:23:27;;;;;;;7.13;2.10;;;;;;;;;;4974086;28;20186;-83
2023/01/06 05:25:54;;;;;;;4.37;1.83;;;;;;;;;;4957478;28;20241;-83
2023/01/06 05:28:20;;;;;;;3.63;1.90;;;;;;;;;;4957807;28;20186;-82
2023/01/06 05:30:46;;;;;;;2.37;1.50;;;;;;;;;;4961456;28;20217;-85
2023/01/06 05:33:12;;;;;;;3.23;1.63;;;;;;;;;;4991293;28;20313;-85
2023/01/06 05:35:38;;;;;;;5.63;1.80;;;;;;;;;;4985904;28;20174;-85
2023/01/06 05:38:04;;;;;;;4.20;1.70;;;;;;;;;;4958816;28;20187;-85
2023/01/06 05:40:30;;;;;;;3.17;1.37;;;;;;;;;;4979038;28;20194;-82
2023/01/06 05:42:57;;;;;;;5.23;1.70;;;;;;;;;;4960874;28;20205;-82
2023/01/06 05:45:23;;;;;;;3.00;1.60;;;;;;;;;;4961012;28;20182;-82
2023/01/06 05:47:50;;;;;;;2.40;1.43;;;;;;;;;;4961004;28;20186;-82
2023/01/06 05:50:16;;;;;;;3.53;1.50;;;;;;;;;;4961127;28;20187;-82
2023/01/06 05:52:42;;;;;;;4.30;1.40;;;;;;;;;;4978994;28;20206;-82
2023/01/06 05:55:08;;;;;;;2.60;1.60;;;;;;;;;;4964129;28;20221;-82
2023/01/06 05:57:35;;;;;;;3.97;1.70;;;;;;;;;;4996491;28;20182;-85
2023/01/06 06:00:01;;;;;;;3.80;1.63;;;;;;;;;;4980279;28;20178;-85
2023/01/06 06:02:27;;;;;;;2.93;1.67;;;;;;;;;;4998738;28;20193;-85
2023/01/06 06:04:53;;;;;;;3.33;1.70;;;;;;;;;;4983061;28;20188;-85
2023/01/06 06:07:19;;;;;;;4.03;1.50;;;;;;;;;;4971699;28;20234;-85
2023/01/06 06:09:45;;;;;;;3.10;1.50;;;;;;;;;;4955786;28;20195;-84
2023/01/06 06:12:12;;;;;;;3.60;1.63;;;;;;;;;;4957967;28;20187;-84
2023/01/06 06:14:38;;;;;;;5.97;1.53;;;;;;;;;;4970940;28;20197;-80
2023/01/06 06:17:04;;;;;;;3.00;1.57;;;;;;;;;;4955225;28;20183;-81
2023/01/06 06:19:30;;;;;;;6.70;1.77;;;;;;;;;;4969088;28;20182;-81
2023/01/06 06:21:56;;;;;;;3.83;1.60;;;;;;;;;;4954451;28;20183;-81
2023/01/06 06:24:22;;;;;;;4.33;1.80;;;;;;;;;;4970179;28;20173;-81
2023/01/06 06:26:48;;;;;;;4.70;1.70;;;;;;;;;;4955227;28;20198;-81
2023/01/06 06:29:14;;;;;;;4.53;1.70;;;;;;;;;;4955733;28;20178;-81
2023/01/06 06:31:40;;;;;;;3.77;1.90;;;;;;;;;;4957104;28;20227;-81
2023/01/06 06:34:06;;;;;;;3.27;1.87;;;;;;;;;;4952483;28;20269;-81
2023/01/06 06:36:32;;;;;;;1.97;1.80;;;;;;;;;;4969664;28;20186;-81
2023/01/06 06:39:00;;;;;;;3.40;1.77;;;;;;;;;;4955251;28;20191;-81
2023/01/06 06:41:26;;;;;;;2.90;1.80;;;;;;;;;;4971368;28;20257;-82
2023/01/06 06:43:52;;;;;;;3.00;1.70;;;;;;;;;;4968084;28;20182;-82
2023/01/06 06:46:18;;;;;;;3.60;1.73;;;;;;;;;;4955570;28;20194;-89
2023/01/06 06:48:44;;;;;;;3.27;1.80;;;;;;;;;;4968570;28;20175;-88
2023/01/06 06:51:12;;;;;;;3.83;1.77;;;;;;;;;;4969219;28;20178;-89
2023/01/06 06:53:40;;;;;;;4.70;1.70;;;;;;;;;;4969842;28;20211;-90
2023/01/06 06:56:07;;;;;;;3.73;1.70;;;;;;;;;;4986430;28;20170;-87
2023/01/06 06:58:34;;;;;;;3.43;1.90;;;;;;;;;;4954520;28;20187;-89
2023/01/06 07:01:03;;;;;;;3.27;2.00;;;;;;;;;;4968359;28;20173;-89
2023/01/06 07:03:29;;;;;;;2.73;2.00;;;;;;;;;;4969475;28;20193;-81
2023/01/06 07:05:55;;;;;;;3.47;1.90;;;;;;;;;;4958836;28;20190;-81
2023/01/06 07:08:22;;;;;;;2.83;1.90;;;;;;;;;;4968540;28;20182;-81
2023/01/06 07:10:48;;;;;;;4.43;2.03;;;;;;;;;;4967449;28;20223;-81
2023/01/06 07:13:14;;;;;;;3.23;1.90;;;;;;;;;;4968938;28;20211;-81
2023/01/06 07:15:40;;;;;;;3.13;2.00;;;;;;;;;;4969187;28;20182;-81
2023/01/06 07:18:06;;;;;;;3.67;1.80;;;;;;;;;;4958002;28;20186;-80
2023/01/06 07:20:33;;;;;;;4.30;2.00;;;;;;;;;;4950769;28;20197;-85
2023/01/06 07:22:59;;;;;;;4.53;2.10;;;;;;;;;;4962945;28;20193;-90
2023/01/06 07:25:25;;;;;;;3.00;2.00;;;;;;;;;;4942257;28;20430;-90
2023/01/06 07:27:55;;;;;;;4.43;2.00;;;;;;;;;;4984069;23;20244;-84
2023/01/06 07:30:22;;;;;;;3.23;2.10;;;;;;;;;;4976135;28;20198;-83
2023/01/06 07:32:48;;;;;;;3.43;2.10;;;;;;;;;;4943937;28;20183;-83
2023/01/06 07:35:14;;;;;;;5.23;2.27;;;;;;;;;;4943299;28;20181;-84
2023/01/06 07:37:41;;;;;;;2.40;2.20;;;;;;;;;;4977820;28;20178;-84
2023/01/06 07:40:08;;;;;;;2.60;2.20;;;;;;;;;;4975096;28;20281;-84
2023/01/06 07:42:37;;;;;;;3.73;2.40;;;;;;;;;;4967917;28;20186;-84
2023/01/06 07:45:03;;;;;;;4.57;2.70;;;;;;;;;;4968929;28;20313;-84
2023/01/06 07:47:29;;;;;;;3.50;2.70;;;;;;;;;;4950761;28;20250;-85
2023/01/06 07:49:55;;;;;;;5.47;2.70;;;;;;;;;;4953559;28;20203;-83
2023/01/06 07:52:21;;;;;;;5.13;3.00;;;;;;;;;;4953431;28;20175;-84
2023/01/06 07:54:47;;;;;;;3.80;3.40;;;;;;;;;;4966007;28;20209;-84
2023/01/06 07:57:13;;;;;;;3.83;3.30;;;;;;;;;;4952563;28;20184;-84
2023/01/06 07:59:39;;;;;;;4.70;4.20;;;;;;;;;;4954699;28;20225;-84
2023/01/06 08:02:05;;;;;;;5.83;4.07;;;;;;;;;;4958340;28;20205;-84
2023/01/06 08:04:34;;;;;;;4.90;4.40;;;;;;;;;;4961260;28;20257;-84
2023/01/06 08:07:00;;;;;;;5.77;5.17;;;;;;;;;;4961355;28;20256;-85
2023/01/06 08:09:26;;;;;;;7.63;5.30;;;;;;;;;;4970775;28;20182;-84
2023/01/06 08:11:52;;;;;;;5.80;5.30;;;;;;;;;;4968138;28;20273;-85
2023/01/06 08:14:18;;;;;;;5.60;5.00;;;;;;;;;;4958284;28;20203;-83
2023/01/06 08:16:44;;;;;;;6.50;5.80;;;;;;;;;;4952912;28;20182;-84
2023/01/06 08:19:10;;;;;;;6.83;6.07;;;;;;;;;;4935217;28;20190;-84
2023/01/06 08:21:36;;;;;;;7.03;6.03;;;;;;;;;;4949527;28;20179;-84
2023/01/06 08:24:04;;;;;;;6.43;5.93;;;;;;;;;;4945151;28;20215;-84
2023/01/06 08:26:30;;;;;;;6.50;6.00;;;;;;;;;;4952881;28;20226;-83
2023/01/06 08:28:56;;;;;;;7.30;6.10;;;;;;;;;;4961266;28;20194;-83
2023/01/06 08:31:23;;;;;;;6.77;6.07;;;;;;;;;;4954879;28;20189;-83
2023/01/06 08:33:52;;;;;;;6.10;5.50;;;;;;;;;;4967412;28;20213;-84
2023/01/06 08:36:18;;;;;;;5.90;5.50;;;;;;;;;;4963529;28;20179;-84
2023/01/06 08:38:45;;;;;;;6.23;5.67;;;;;;;;;;4973726;28;20182;-84
2023/01/06 08:41:13;;;;;;;5.77;5.37;;;;;;;;;;4962230;28;20170;-84
2023/01/06 08:43:41;;;;;;;6.27;5.67;;;;;;;;;;4970591;28;20189;-85
2023/01/06 08:46:08;;;;;;;5.77;5.27;;;;;;;;;;4969486;28;20228;-84
2023/01/06 08:48:34;;;;;;;5.63;5.23;;;;;;;;;;4958211;28;20186;-84
2023/01/06 08:51:05;;;;;;;5.73;5.23;;;;;;;;;;4957390;28;20191;-84
2023/01/06 08:53:31;;;;;;;6.40;4.80;;;;;;;;;;4964376;28;20202;-84
2023/01/06 08:55:57;;;;;;;5.80;5.20;;;;;;;;;;4963217;28;20214;-84
2023/01/06 08:58:23;;;;;;;5.17;4.77;;;;;;;;;;4981945;28;20178;-85
2023/01/06 09:00:49;;;;;;;7.40;5.60;;;;;;;;;;4944775;28;20278;-85
2023/01/06 09:03:15;;;;;;;5.40;4.90;;;;;;;;;;4942022;28;20296;-85
2023/01/06 09:05:41;;;;;;;5.97;4.73;;;;;;;;;;4970239;28;20193;-84
2023/01/06 09:08:07;;;;;;;5.30;4.90;;;;;;;;;;4974782;28;20190;-85
2023/01/06 09:10:36;;;;;;;5.60;5.00;;;;;;;;;;4972647;28;20265;-84
2023/01/06 09:13:03;;;;;;;5.43;4.93;;;;;;;;;;4960229;28;20297;-84
2023/01/06 09:15:29;;;;;;;4.77;4.03;;;;;;;;;;4973589;28;20178;-85
2023/01/06 09:17:55;;;;;;;4.00;3.60;;;;;;;;;;4955369;28;20182;-84
2023/01/06 09:20:21;;;;;;;4.57;3.53;;;;;;;;;;4966569;28;20182;-84
2023/01/06 09:22:47;;;;;;;3.40;3.10;;;;;;;;;;4961051;28;20186;-84
2023/01/06 09:25:13;;;;;;;3.07;2.40;;;;;;;;;;4945525;28;20238;-84
2023/01/06 09:27:39;;;;;;;3.60;2.60;;;;;;;;;;4960924;28;20230;-84
2023/01/06 09:30:06;;;;;;;4.37;2.20;;;;;;;;;;4960889;28;20225;-83
2023/01/06 09:32:33;;;;;;;3.43;2.00;;;;;;;;;;4961190;28;20261;-85
2023/01/06 09:34:59;;;;;;;1.93;1.50;;;;;;;;;;4960808;28;20287;-83
2023/01/06 09:37:25;;;;;;;2.27;1.40;;;;;;;;;;4960903;28;20174;-84
2023/01/06 09:39:51;;;;;;;3.63;1.60;;;;;;;;;;4961024;28;20190;-84
2023/01/06 09:42:36;;;;;;;4.13;1.60;;;;;;;;;;4960954;28;20266;-84
2023/01/06 09:45:04;;;;;;;3.10;1.63;;;;;;;;;;4960873;28;20186;-84
2023/01/06 09:47:46;;;;;;;5.30;2.03;;;;;;;;;;4960900;28;20245;-83
2023/01/06 09:50:31;;;;;;;7.87;2.07;;;;;;;;;;4960724;28;20187;-84
2023/01/06 09:53:03;;;;;;;4.87;2.17;;;;;;;;;;4960668;28;20198;-83
2023/01/06 09:55:35;;;;;;;5.33;2.00;;;;;;;;;;4956744;28;20183;-84
2023/01/06 09:58:22;;;;;;;6.80;2.27;;;;;;;;;;4941499;29;20184;-84
2023/01/06 10:00:49;;;;;;;4.27;1.93;;;;;;;;;;4941028;29;20183;-83
2023/01/06 10:03:25;;;;;;;6.07;2.43;;;;;;;;;;4941343;29;20226;-83
2023/01/06 10:06:10;;;;;;;5.60;2.37;;;;;;;;;;4941810;29;20179;-84
2023/01/06 10:08:48;;;;;;;5.33;2.30;;;;;;;;;;4941307;29;20190;-83
2023/01/06 10:11:16;;;;;;;6.07;2.10;;;;;;;;;;4941368;29;20183;-84
2023/01/06 10:13:52;;;;;;;5.23;1.90;;;;;;;;;;4952461;29;20204;-85
2023/01/06 10:16:21;;;;;;;6.47;2.20;;;;;;;;;;4957184;28;20466;-84
2023/01/06 10:19:23;;;;;;;7.23;2.00;;;;;;;;;;4957107;28;20506;-84
2023/01/06 10:22:18;;;;;;;5.05;1.90;;;;;;;;;;4845752;29;20424;-83
2023/01/06 10:25:03;;;;;;;6.67;2.13;;;;;;;;;;4927392;29;20431;-83
2023/01/06 10:27:36;;;;;;;6.57;2.00;;;;;;;;;;4955815;28;20444;-84
2023/01/06 10:30:04;;;;;;;5.70;1.95;;;;;;;;;;4956593;28;20429;-84
2023/01/06 10:32:33;;;;;;;7.38;2.00;;;;;;;;;;4959387;28;20420;-84
2023/01/06 10:34:59;;;;;;;4.03;1.70;;;;;;;;;;4959915;28;20206;-84
2023/01/06 10:37:36;;;;;;;6.33;1.67;;;;;;;;;;4959847;28;20177;-83
2023/01/06 10:40:14;;;;;;;3.30;1.50;;;;;;;;;;4960041;28;20186;-84
2023/01/06 10:42:54;;;;;;;4.90;1.60;;;;;;;;;;4959642;28;20175;-85
2023/01/06 10:45:20;;;;;;;5.90;1.73;;;;;;;;;;4960258;28;20265;-84
2023/01/06 10:47:46;;;;;;;5.53;1.70;;;;;;;;;;4960340;28;20181;-84
2023/01/06 10:50:14;;;;;;;7.20;1.50;;;;;;;;;;4959998;28;20183;-84
2023/01/06 10:52:40;;;;;;;4.70;1.60;;;;;;;;;;4959665;28;20179;-85
2023/01/06 10:55:06;;;;;;;3.93;1.47;;;;;;;;;;4943579;28;20214;-85
2023/01/06 10:57:35;;;;;;;5.67;1.63;;;;;;;;;;4959939;28;20233;-85
2023/01/06 11:00:09;;;;;;;4.27;1.30;;;;;;;;;;4959853;28;20206;-84
2023/01/06 11:02:35;;;;;;;3.95;1.60;;;;;;;;;;4959730;28;20418;-84
2023/01/06 11:05:01;;;;;;;4.30;1.70;;;;;;;;;;4959413;28;20432;-84
2023/01/06 11:07:29;;;;;;;5.32;1.80;;;;;;;;;;4959453;28;20414;-84
2023/01/06 11:09:55;;;;;;;3.63;1.60;;;;;;;;;;4958864;28;20429;-83
2023/01/06 11:12:26;;;;;;;5.40;1.90;;;;;;;;;;4958886;28;20441;-84
2023/01/06 11:14:57;;;;;;;6.57;1.80;;;;;;;;;;4959915;28;20289;-85
2023/01/06 11:17:23;;;;;;;5.83;1.63;;;;;;;;;;4959618;28;20178;-83
2023/01/06 11:20:04;;;;;;;5.80;1.60;;;;;;;;;;4944422;28;20194;-84
2023/01/06 11:22:36;;;;;;;5.55;1.90;;;;;;;;;;4958785;28;20453;-83
2023/01/06 11:25:03;;;;;;;6.97;1.90;;;;;;;;;;4958645;28;20418;-83
2023/01/06 11:27:29;;;;;;;7.30;1.90;;;;;;;;;;4958190;28;20497;-83
2023/01/06 11:29:55;;;;;;;7.28;2.30;;;;;;;;;;4958827;28;20418;-83
2023/01/06 11:32:23;;;;;;;8.93;2.17;;;;;;;;;;4958182;28;20183;-83
2023/01/06 11:34:54;;;;;;;6.40;1.87;;;;;;;;;;4958525;28;20198;-84
2023/01/06 11:37:34;;;;;;;7.23;3.07;;;;;;;;;;4958695;28;20206;-84
2023/01/06 11:40:01;;;;;;;7.37;2.33;;;;;;;;;;4958843;28;20181;-83
2023/01/06 11:42:27;;;;;;;6.80;1.98;;;;;;;;;;4958557;28;20433;-84
2023/01/06 11:44:53;;;;;;;7.77;2.40;;;;;;;;;;4941460;28;20187;-85
2023/01/06 11:47:21;;;;;;;6.07;1.70;;;;;;;;;;4958707;28;20183;-84
2023/01/06 11:49:49;;;;;;;6.47;2.10;;;;;;;;;;4958939;28;20183;-85
2023/01/06 11:52:22;;;;;;;6.03;2.23;;;;;;;;;;4957850;28;20201;-85
2023/01/06 11:54:58;;;;;;;7.50;1.73;;;;;;;;;;4958569;28;20232;-85
2023/01/06 11:57:35;;;;;;;4.73;1.40;;;;;;;;;;4958539;28;20182;-84
2023/01/06 12:00:20;;;;;;;4.37;1.50;;;;;;;;;;4958472;28;20189;-84
2023/01/06 12:02:57;;;;;;;5.07;1.70;;;;;;;;;;4951311;28;20172;-85
2023/01/06 12:05:45;;;;;;;3.70;1.30;;;;;;;;;;4947874;28;20237;-84
2023/01/06 12:08:15;;;;;;;5.47;1.83;;;;;;;;;;4963357;28;20408;-84
2023/01/06 12:10:41;;;;;;;4.10;1.80;;;;;;;;;;4949710;28;20179;-84
2023/01/06 12:13:09;;;;;;;6.57;1.80;;;;;;;;;;4947234;28;20572;-84
2023/01/06 12:15:36;;;;;;;6.13;1.60;;;;;;;;;;4950158;28;20182;-84
2023/01/06 12:18:23;;;;;;;7.95;1.70;;;;;;;;;;4954316;28;20542;-82
2023/01/06 12:20:51;;;;;;;6.10;1.95;;;;;;;;;;4953451;28;20417;-84
2023/01/06 12:23:17;;;;;;;6.35;2.10;;;;;;;;;;4956456;28;20431;-84
2023/01/06 12:25:44;;;;;;;10.10;1.93;;;;;;;;;;4951240;28;20176;-83
2023/01/06 12:28:16;;;;;;;7.90;1.80;;;;;;;;;;4947563;28;20253;-84
2023/01/06 12:30:49;;;;;;;4.10;1.90;;;;;;;;;;4949815;28;20228;-84
2023/01/06 12:33:21;;;;;;;5.95;1.80;;;;;;;;;;4956530;28;20459;-84
2023/01/06 12:35:48;;;;;;;8.03;1.83;;;;;;;;;;4957491;28;20179;-83
2023/01/06 12:38:27;;;;;;;9.20;1.73;;;;;;;;;;4963674;28;20191;-83
2023/01/06 12:40:58;;;;;;;6.13;1.60;;;;;;;;;;4939144;29;20179;-83
2023/01/06 12:43:25;;;;;;;4.85;1.77;;;;;;;;;;4938326;29;20427;-84
2023/01/06 12:45:54;;;;;;;4.45;1.55;;;;;;;;;;4938356;29;20427;-83
2023/01/06 12:48:29;;;;;;;5.90;1.75;;;;;;;;;;4939255;28;20424;-84
2023/01/06 12:50:59;;;;;;;5.78;1.70;;;;;;;;;;4938014;29;20470;-83
2023/01/06 12:53:28;;;;;;;5.23;1.70;;;;;;;;;;4940118;28;20539;-84
2023/01/06 12:56:10;;;;;;;4.95;1.52;;;;;;;;;;4957002;28;20260;-84
2023/01/06 12:58:36;;;;;;;3.80;1.70;;;;;;;;;;4957354;28;20427;-83
2023/01/06 13:01:05;;;;;;;4.43;1.50;;;;;;;;;;4957802;28;20429;-84
2023/01/06 13:03:35;;;;;;;3.67;1.20;;;;;;;;;;4957229;28;20425;-84
2023/01/06 13:06:01;;;;;;;5.25;1.40;;;;;;;;;;4956694;28;20414;-85
2023/01/06 13:08:46;;;;;;;4.07;1.40;;;;;;;;;;4955599;28;20422;-83
2023/01/06 13:11:21;;;;;;;5.35;1.60;;;;;;;;;;4953776;28;20495;-83
2023/01/06 13:13:47;;;;;;;4.43;1.35;;;;;;;;;;4951293;28;20504;-83
2023/01/06 13:16:33;;;;;;;4.40;1.50;;;;;;;;;;4957337;28;20453;-83
2023/01/06 13:19:09;;;;;;;4.60;1.48;;;;;;;;;;4946881;28;20411;-84
2023/01/06 13:21:36;;;;;;;3.97;1.40;;;;;;;;;;4956946;28;20445;-84
2023/01/06 13:24:19;;;;;;;4.10;1.27;;;;;;;;;;4957385;28;20422;-85
2023/01/06 13:26:48;;;;;;;3.22;1.45;;;;;;;;;;4956383;28;21487;-85
2023/01/06 13:29:29;;;;;;;5.90;1.60;;;;;;;;;;4956531;28;20524;-84
2023/01/06 13:32:02;;;;;;;4.27;1.50;;;;;;;;;;4956994;28;20186;-83
2023/01/06 13:34:28;;;;;;;5.00;1.40;;;;;;;;;;4956905;28;20434;-83
2023/01/06 13:37:13;;;;;;;2.37;1.20;;;;;;;;;;4956347;28;20418;-88
2023/01/06 13:39:44;;;;;;;6.03;1.50;;;;;;;;;;4956800;28;20414;-88
2023/01/06 13:42:14;;;;;;;4.15;1.55;;;;;;;;;;4956252;28;20509;-88
2023/01/06 13:44:41;;;;;;;4.40;1.20;;;;;;;;;;4955796;28;20242;-88
2023/01/06 13:47:13;;;;;;;3.38;1.40;;;;;;;;;;4971981;28;20446;-89
2023/01/06 13:49:40;;;;;;;4.68;1.42;;;;;;;;;;4958532;28;20442;-89
2023/01/06 13:52:32;;;;;;;4.47;1.50;;;;;;;;;;4958165;28;20415;-88
2023/01/06 13:55:01;;;;;;;3.90;1.40;;;;;;;;;;4954672;28;20430;-90
2023/01/06 13:57:43;;;;;;;2.80;1.23;;;;;;;;;;4959251;28;20182;-89
2023/01/06 14:00:28;;;;;;;4.47;1.13;;;;;;;;;;4961664;28;20186;-90
2023/01/06 14:03:02;;;;;;;5.67;1.47;;;;;;;;;;4966806;28;20190;-89
2023/01/06 14:05:28;;;;;;;4.07;1.40;;;;;;;;;;4963193;28;20545;-89
2023/01/06 14:07:55;;;;;;;5.28;1.50;;;;;;;;;;4962240;28;20436;-89
2023/01/06 14:10:33;;;;;;;5.53;1.55;;;;;;;;;;4962420;28;20414;-89
2023/01/06 14:13:00;;;;;;;3.87;1.23;;;;;;;;;;4962962;28;20183;-89
2023/01/06 14:15:30;;;;;;;7.47;1.27;;;;;;;;;;4961608;28;20210;-89
2023/01/06 14:17:59;;;;;;;4.47;1.37;;;;;;;;;;4962612;28;20171;-89
2023/01/06 14:20:30;;;;;;;4.60;1.37;;;;;;;;;;4962935;28;20175;-89
2023/01/06 14:23:02;;;;;;;2.53;1.20;;;;;;;;;;4962834;28;20183;-89
2023/01/06 14:25:28;;;;;;;7.53;1.40;;;;;;;;;;4960606;28;20266;-86
2023/01/06 14:27:54;;;;;;;4.53;1.13;;;;;;;;;;4960238;28;20284;-87
2023/01/06 14:30:30;;;;;;;10.67;1.43;;;;;;;;;;4959792;28;20179;-87
2023/01/06 14:32:56;;;;;;;2.30;1.17;;;;;;;;;;4958934;28;20186;-87
2023/01/06 14:36:06;;;;;;;3.53;1.20;;;;;;;;;;4959402;28;20233;-86
2023/01/06 14:38:44;;;;;;;10.30;1.70;;;;;;;;;;4885272;29;20197;-87
2023/01/06 14:41:51;;;;;;;4.37;1.30;;;;;;;;;;4950407;28;20207;-86
2023/01/06 14:44:26;;;;;;;4.37;1.40;;;;;;;;;;4932205;28;20183;-86
2023/01/06 14:46:56;;;;;;;5.60;1.57;;;;;;;;;;4959124;28;20191;-86
2023/01/06 14:49:38;;;;;;;5.03;1.30;;;;;;;;;;4955786;28;20207;-87
2023/01/06 14:52:11;;;;;;;3.10;1.30;;;;;;;;;;4959265;28;20185;-86
2023/01/06 14:54:56;;;;;;;5.47;1.80;;;;;;;;;;4958544;28;20433;-87
2023/01/06 14:57:39;;;;;;;2.83;1.50;;;;;;;;;;4958997;28;20205;-87
2023/01/06 15:00:05;;;;;;;3.80;1.53;;;;;;;;;;4959470;28;20233;-88
2023/01/06 15:02:32;;;;;;;3.47;1.33;;;;;;;;;;4959394;28;20204;-88